Time;durP1;ratioP1;P1;durP2;ratioP2;P2;SDS_P1;SDS_P2;PMS_P1;PMS_P2;Temp;Humidity;BMP_temperature;BMP_pressure;BME280_temperature;BME280_humidity;BME280_pressure;Samples;Min_cycle;Max_cycle;Signal;HPM_P1;HPM_P2
2023/09/20 00:04:02;;;;;;;1.52;0.40;;;;;;;19.01;57.86;100046.19;10418423;28;20132;-58
2023/09/20 00:09:04;;;;;;;0.50;0.28;;;;;;;19.12;57.46;100055.41;10419107;28;20107;-58
2023/09/20 00:14:06;;;;;;;0.98;0.40;;;;;;;19.21;57.36;100058.59;10421176;28;20048;-59
2023/09/20 00:19:08;;;;;;;1.48;0.32;;;;;;;19.20;57.37;100065.13;10423687;28;20145;-58
2023/09/20 00:24:10;;;;;;;1.38;0.30;;;;;;;19.07;57.84;100059.91;10426729;28;20048;-58
2023/09/20 00:29:11;;;;;;;1.58;0.30;;;;;;;18.87;58.61;100063.84;10427339;28;20408;-58
2023/09/20 00:34:13;;;;;;;1.80;0.47;;;;;;;18.81;58.78;100054.72;10410352;28;20050;-58
2023/09/20 00:39:17;;;;;;;1.15;0.38;;;;;;;18.79;58.79;100054.13;10429299;28;20132;-59
2023/09/20 00:44:18;;;;;;;6.60;0.60;;;;;;;18.77;58.85;100056.25;10422348;28;20049;-59
2023/09/20 00:49:20;;;;;;;0.57;0.30;;;;;;;18.75;58.88;100055.66;10418914;28;20061;-59
2023/09/20 00:54:23;;;;;;;3.60;0.32;;;;;;;18.74;58.91;100061.31;10412461;28;20053;-58
2023/09/20 00:59:24;;;;;;;1.45;0.30;;;;;;;18.78;58.93;100073.44;10424999;28;20044;-59
2023/09/20 01:04:28;;;;;;;0.70;0.30;;;;;;;18.82;58.74;100061.84;10429368;28;20373;-59
2023/09/20 01:09:29;;;;;;;2.42;0.40;;;;;;;18.79;58.86;100067.75;10425128;28;20700;-59
2023/09/20 01:14:31;;;;;;;3.17;0.40;;;;;;;18.77;58.97;100049.97;10423461;28;20057;-59
2023/09/20 01:19:33;;;;;;;1.70;0.40;;;;;;;18.78;58.83;100047.00;10421474;28;20049;-59
2023/09/20 01:24:35;;;;;;;5.13;1.10;;;;;;;18.78;58.92;100047.00;10406888;28;20411;-59
2023/09/20 01:29:38;;;;;;;1.42;0.40;;;;;;;18.75;59.14;100046.66;10403368;28;20408;-59
2023/09/20 01:34:41;;;;;;;2.63;0.50;;;;;;;18.70;59.26;100041.94;10419424;28;20048;-58
2023/09/20 01:39:42;;;;;;;3.47;0.40;;;;;;;18.65;59.55;100049.97;10417244;28;20045;-58
2023/09/20 01:44:44;;;;;;;4.22;0.43;;;;;;;18.55;59.86;100053.28;10420778;28;20045;-59
2023/09/20 01:49:46;;;;;;;0.88;0.30;;;;;;;18.45;60.12;100046.78;10416428;28;20041;-58
2023/09/20 01:54:48;;;;;;;3.03;0.40;;;;;;;18.30;60.59;100039.06;10422166;28;20063;-58
2023/09/20 01:59:51;;;;;;;2.78;0.40;;;;;;;18.29;60.61;100038.22;10420739;28;20045;-58
2023/09/20 02:04:52;;;;;;;0.73;0.38;;;;;;;18.33;60.65;100028.53;10421253;28;20060;-58
2023/09/20 02:09:54;;;;;;;1.92;0.40;;;;;;;18.34;60.57;100015.75;10421822;28;20511;-58
2023/09/20 02:14:55;;;;;;;2.40;0.47;;;;;;;18.31;60.95;100010.78;10424501;28;20060;-58
2023/09/20 02:19:57;;;;;;;2.08;0.40;;;;;;;18.34;60.96;100018.47;10421470;28;20240;-58
2023/09/20 02:24:58;;;;;;;1.13;0.43;;;;;;;18.36;60.87;100019.06;10421839;28;20132;-58
2023/09/20 02:30:00;;;;;;;1.23;0.50;;;;;;;18.32;61.01;100018.69;10435358;28;20051;-58
2023/09/20 02:35:03;;;;;;;2.78;0.50;;;;;;;18.32;61.32;100021.41;10428584;28;20052;-58
2023/09/20 02:40:11;;;;;;;1.48;0.60;;;;;;;18.35;61.40;100010.06;10438728;28;20075;-58
2023/09/20 02:45:13;;;;;;;1.08;0.40;;;;;;;18.38;61.39;100014.22;10411059;28;20623;-59
2023/09/20 02:50:22;;;;;;;2.97;0.40;;;;;;;18.38;61.31;100015.06;10424513;28;20045;-59
2023/09/20 02:55:24;;;;;;;0.80;0.32;;;;;;;18.37;61.39;100010.66;10429664;28;20041;-59
2023/09/20 03:00:28;;;;;;;0.95;0.50;;;;;;;18.39;61.39;100008.53;10424683;28;20046;-59
2023/09/20 03:05:32;;;;;;;2.72;0.40;;;;;;;18.39;61.39;99994.94;10426203;28;20254;-59
2023/09/20 03:10:38;;;;;;;3.70;0.50;;;;;;;18.36;61.44;99992.66;10428706;28;20037;-59
2023/09/20 03:15:45;;;;;;;1.08;0.40;;;;;;;18.39;61.31;99994.94;10426103;28;20041;-59
2023/09/20 03:20:48;;;;;;;5.20;0.68;;;;;;;18.36;61.29;99987.22;10428621;28;20052;-59
2023/09/20 03:25:50;;;;;;;2.97;0.40;;;;;;;18.36;61.24;99992.66;10426035;28;20141;-59
2023/09/20 03:30:52;;;;;;;2.28;0.50;;;;;;;18.38;61.15;99990.56;10428232;28;20281;-59
2023/09/20 03:35:53;;;;;;;1.40;0.50;;;;;;;18.36;61.28;99986.41;10422699;28;20056;-59
2023/09/20 03:40:54;;;;;;;2.28;0.70;;;;;;;18.36;61.25;99975.53;10425665;28;20053;-59
2023/09/20 03:45:56;;;;;;;1.83;0.60;;;;;;;18.33;61.36;99963.22;10421344;28;20060;-59
2023/09/20 03:50:57;;;;;;;5.40;0.70;;;;;;;18.29;61.59;99970.22;10423754;28;20136;-57
2023/09/20 03:55:59;;;;;;;0.57;0.47;;;;;;;18.25;61.61;99974.47;10424002;28;20060;-58
2023/09/20 04:01:04;;;;;;;2.03;0.45;;;;;;;18.21;61.95;99967.84;10429303;28;20064;-58
2023/09/20 04:06:05;;;;;;;0.90;0.50;;;;;;;18.15;61.90;99960.63;10424761;28;20049;-58
2023/09/20 04:11:07;;;;;;;3.60;0.75;;;;;;;18.11;62.13;99973.88;10422618;28;20386;-59
2023/09/20 04:16:08;;;;;;;3.90;0.70;;;;;;;18.09;62.32;99980.59;10424738;28;20049;-58
2023/09/20 04:21:10;;;;;;;1.75;0.45;;;;;;;18.06;62.22;99967.47;10423832;28;20045;-58
2023/09/20 04:26:11;;;;;;;2.25;0.60;;;;;;;18.04;62.33;99965.78;10419969;28;20049;-58
2023/09/20 04:31:13;;;;;;;2.42;0.70;;;;;;;18.02;62.34;99969.81;10422165;28;20527;-59
2023/09/20 04:36:15;;;;;;;1.58;0.43;;;;;;;18.00;62.55;99974.66;10428328;28;20045;-58
2023/09/20 04:41:17;;;;;;;1.58;0.70;;;;;;;17.95;62.79;99972.66;10420663;28;20057;-59
2023/09/20 04:46:18;;;;;;;2.05;0.55;;;;;;;17.91;62.70;99966.03;10421986;28;20123;-59
2023/09/20 04:51:20;;;;;;;4.00;0.88;;;;;;;17.88;63.02;99971.09;10423112;28;20172;-60
2023/09/20 04:56:22;;;;;;;2.70;0.90;;;;;;;17.85;62.98;99966.94;10425171;28;20053;-58
2023/09/20 05:01:26;;;;;;;1.85;0.55;;;;;;;17.85;63.14;99961.50;10422791;28;20045;-58
2023/09/20 05:06:28;;;;;;;1.55;0.77;;;;;;;17.84;63.34;99974.28;10419002;28;20140;-61
2023/09/20 05:11:29;;;;;;;2.58;0.50;;;;;;;17.87;63.29;99975.72;10420314;28;20049;-61
2023/09/20 05:16:31;;;;;;;0.90;0.60;;;;;;;17.91;63.24;99968.75;10416313;28;20566;-61
2023/09/20 05:21:32;;;;;;;2.38;0.90;;;;;;;17.93;63.20;99976.66;10420811;28;20124;-61
2023/09/20 05:26:34;;;;;;;3.47;1.80;;;;;;;17.91;63.52;99976.91;10419625;28;20053;-61
2023/09/20 05:31:36;;;;;;;7.70;1.85;;;;;;;17.94;63.52;99965.56;10422580;28;20046;-61
2023/09/20 05:36:37;;;;;;;3.80;1.52;;;;;;;18.00;63.38;99969.22;10423948;28;20049;-61
2023/09/20 05:41:40;;;;;;;2.83;1.00;;;;;;;18.03;63.47;99974.22;10419570;28;20107;-61
2023/09/20 05:46:42;;;;;;;4.97;1.00;;;;;;;18.04;63.54;99963.06;10417317;28;20464;-62
2023/09/20 05:51:44;;;;;;;5.85;0.85;;;;;;;18.08;63.70;99976.22;10426440;28;20049;-60
2023/09/20 05:56:45;;;;;;;3.88;0.77;;;;;;;18.14;63.71;99976.09;10424859;28;20456;-61
2023/09/20 06:01:47;;;;;;;2.33;0.75;;;;;;;18.22;63.63;99966.75;10422013;28;20044;-61
2023/09/20 06:06:49;;;;;;;7.15;1.77;;;;;;;18.30;63.58;99971.03;10418789;28;20050;-60
2023/09/20 06:11:51;;;;;;;3.15;1.05;;;;;;;18.37;63.62;99961.69;10421879;28;20053;-61
2023/09/20 06:16:52;;;;;;;4.10;1.02;;;;;;;18.43;63.66;99955.28;10416155;28;20049;-58
2023/09/20 06:21:54;;;;;;;4.57;0.98;;;;;;;18.51;63.56;99956.00;10416392;28;20048;-61
2023/09/20 06:26:55;;;;;;;2.00;0.82;;;;;;;18.46;63.83;99953.97;10415054;28;20049;-59
2023/09/20 06:31:57;;;;;;;3.30;0.70;;;;;;;18.43;63.94;99966.19;10415085;28;20045;-59
2023/09/20 06:36:58;;;;;;;7.47;3.42;;;;;;;18.44;64.00;99969.72;10419354;28;20453;-58
2023/09/20 06:41:59;;;;;;;7.38;3.85;;;;;;;18.39;64.27;99981.31;10422858;28;20041;-59
2023/09/20 06:47:06;;;;;;;2.65;1.00;;;;;;;18.40;64.22;99968.53;10416024;28;20045;-58
2023/09/20 06:52:08;;;;;;;3.55;0.85;;;;;;;18.50;64.04;99968.75;10417651;28;20056;-60
2023/09/20 06:57:17;;;;;;;3.13;0.95;;;;;;;18.59;63.92;99974.69;10416027;28;20072;-59
2023/09/20 07:02:19;;;;;;;4.07;1.00;;;;;;;18.64;63.95;99980.22;10415632;28;20156;-58
2023/09/20 07:07:20;;;;;;;2.35;0.80;;;;;;;18.88;63.30;99977.50;10420266;28;20500;-58
2023/09/20 07:12:23;;;;;;;3.08;0.93;;;;;;;18.90;63.40;99967.19;10423655;28;20530;-58
2023/09/20 07:17:24;;;;;;;2.67;0.80;;;;;;;19.04;62.85;99965.88;10420108;28;20069;-59
2023/09/20 07:22:28;;;;;;;2.88;0.88;;;;;;;19.11;62.64;99957.56;10431941;28;20056;-58
2023/09/20 07:27:32;;;;;;;2.38;0.85;;;;;;;19.19;62.58;99962.63;10425895;28;20415;-59
2023/09/20 07:32:35;;;;;;;2.67;0.85;;;;;;;19.28;62.45;99963.09;10427578;28;20053;-59
2023/09/20 07:37:40;;;;;;;3.78;0.90;;;;;;;19.42;62.09;99958.97;10427929;28;20053;-58
2023/09/20 07:42:42;;;;;;;3.67;1.30;;;;;;;19.56;61.87;99963.06;10427604;28;20055;-59
2023/09/20 07:47:44;;;;;;;3.55;1.23;;;;;;;19.57;61.54;99942.91;10417623;28;20057;-57
2023/09/20 07:52:46;;;;;;;5.05;0.70;;;;;;;19.73;61.08;99948.66;10428443;28;20397;-57
2023/09/20 07:57:47;;;;;;;4.72;1.10;;;;;;;19.81;61.15;99954.53;10418164;28;20048;-58
2023/09/20 08:02:54;;;;;;;2.72;0.70;;;;;;;19.96;60.74;99953.97;10417940;28;20061;-57
2023/09/20 08:07:55;;;;;;;;;;;;;;;20.18;60.71;99955.94;10425549;28;20048;-58
2023/09/20 08:12:57;;;;;;;2.40;1.10;;;;;;;20.36;59.94;99950.22;10436581;28;19928;-58
2023/09/20 09:00:51;;;;;;;2.53;0.50;;;;;;;21.85;56.57;99924.63;10427180;28;20046;-57
2023/09/20 09:05:53;;;;;;;4.95;0.63;;;;;;;21.97;56.60;99930.75;10428482;28;20052;-56
2023/09/20 09:10:55;;;;;;;1.45;0.63;;;;;;;22.07;56.15;99935.47;10426049;28;20055;-58
2023/09/20 09:15:57;;;;;;;2.42;0.60;;;;;;;22.10;56.02;99928.66;10428565;28;20091;-59
2023/09/20 09:20:58;;;;;;;1.88;0.50;;;;;;;22.15;55.77;99929.50;10424386;28;20082;-57
2023/09/20 09:26:00;;;;;;;1.88;0.60;;;;;;;22.57;55.08;99914.16;10425563;28;20053;-58
2023/09/20 09:31:01;;;;;;;3.35;0.50;;;;;;;22.81;54.68;99911.00;10422908;28;20447;-57
2023/09/20 09:36:04;;;;;;;5.35;0.50;;;;;;;22.88;54.48;99914.31;10400367;28;20045;-56
2023/09/20 09:41:08;;;;;;;2.20;0.45;;;;;;;22.73;54.44;99915.09;10418629;28;20087;-59
2023/09/20 09:46:10;;;;;;;1.42;0.40;;;;;;;22.85;53.99;99910.19;10421716;28;20083;-59
2023/09/20 09:51:13;;;;;;;2.58;0.50;;;;;;;23.03;53.55;99905.38;10421736;28;20049;-59
2023/09/20 09:56:16;;;;;;;2.40;0.47;;;;;;;23.20;53.12;99899.63;10421981;28;20049;-58
2023/09/20 10:01:22;;;;;;;1.65;0.55;;;;;;;23.50;52.62;99894.19;10419057;28;20055;-59
2023/09/20 10:06:28;;;;;;;2.00;0.50;;;;;;;23.74;51.69;99880.75;10422772;28;20148;-59
2023/09/20 10:11:29;;;;;;;2.22;0.80;;;;;;;24.09;51.24;99887.34;10419027;28;20072;-58
2023/09/20 10:16:32;;;;;;;3.42;0.68;;;;;;;24.29;50.59;99874.66;10419286;28;20525;-60
2023/09/20 10:21:37;;;;;;;2.35;0.50;;;;;;;24.42;50.25;99865.00;10404702;28;20136;-59
2023/09/20 10:26:41;;;;;;;3.10;0.60;;;;;;;24.63;50.03;99872.09;10421896;28;20431;-60
2023/09/20 10:31:43;;;;;;;1.55;0.40;;;;;;;24.70;49.46;99858.03;10417559;28;20045;-60
2023/09/20 10:36:52;;;;;;;2.08;0.28;;;;;;;25.08;49.59;99853.72;10420810;28;20054;-59
2023/09/20 10:41:53;;;;;;;5.53;0.77;;;;;;;25.57;48.44;99857.50;10419189;28;20128;-60
2023/09/20 10:46:59;;;;;;;1.23;0.60;;;;;;;25.50;48.00;99848.78;10410458;28;20142;-60
2023/09/20 10:52:03;;;;;;;1.88;0.32;;;;;;;25.45;48.36;99852.38;10426936;28;20041;-60
2023/09/20 10:57:07;;;;;;;2.35;1.13;;;;;;;25.41;48.08;99856.00;10428784;28;20060;-58
2023/09/20 11:02:16;;;;;;;1.25;0.30;;;;;;;25.58;47.45;99842.66;10427417;28;20347;-58
2023/09/20 11:07:17;;;;;;;2.28;0.40;;;;;;;25.93;46.79;99843.47;10426556;28;20107;-59
2023/09/20 11:12:20;;;;;;;2.53;0.28;;;;;;;25.97;46.40;99838.16;10425248;28;20084;-58
2023/09/20 11:17:21;;;;;;;3.22;0.30;;;;;;;26.24;45.71;99819.13;10426273;28;20076;-60
2023/09/20 11:22:23;;;;;;;0.45;0.20;;;;;;;26.45;45.19;99814.22;10426466;28;20503;-60
2023/09/20 11:27:24;;;;;;;1.75;0.30;;;;;;;26.75;44.31;99812.19;10424753;28;20698;-60
2023/09/20 11:32:26;;;;;;;2.45;0.32;;;;;;;26.96;44.14;99804.44;10424447;28;20045;-59
2023/09/20 11:37:30;;;;;;;0.75;0.20;;;;;;;27.48;42.95;99802.53;10426796;28;20151;-60
2023/09/20 11:42:33;;;;;;;5.15;0.30;;;;;;;27.44;42.92;99795.16;10421225;28;20050;-61
2023/09/20 11:47:41;;;;;;;1.55;0.30;;;;;;;27.39;42.64;99793.31;10423054;28;20399;-60
2023/09/20 11:52:47;;;;;;;0.98;0.30;;;;;;;27.66;42.21;99786.19;10425448;28;20828;-60
2023/09/20 11:57:49;;;;;;;3.22;0.30;;;;;;;27.97;41.87;99778.19;10429158;28;20051;-60
2023/09/20 12:02:51;;;;;;;2.58;0.20;;;;;;;28.36;41.16;99774.09;10446002;28;21569;-63
2023/09/20 12:07:58;;;;;;;1.75;0.68;;;;;;;28.56;41.05;99763.75;10422896;28;20052;-59
2023/09/20 12:13:00;;;;;;;2.08;0.20;;;;;;;28.80;40.12;99757.94;10432653;28;20105;-58
2023/09/20 12:18:01;;;;;;;4.15;0.30;;;;;;;29.15;38.69;99736.91;10453335;28;20048;-58
2023/09/20 12:23:05;;;;;;;1.77;0.20;;;;;;;29.10;39.42;99745.28;10442549;28;20052;-59
2023/09/20 12:28:06;;;;;;;1.27;0.25;;;;;;;29.07;38.55;99746.75;10438632;28;20084;-58
2023/09/20 12:33:08;;;;;;;0.77;0.30;;;;;;;29.07;38.47;99726.56;10426168;28;20071;-57
2023/09/20 12:38:10;;;;;;;0.60;0.20;;;;;;;29.28;38.44;99707.50;10424106;28;20132;-57
2023/09/20 12:43:13;;;;;;;0.30;0.20;;;;;;;29.04;38.07;99702.28;10425429;28;20090;-57
2023/09/20 12:48:15;;;;;;;0.20;0.17;;;;;;;29.17;38.13;99700.63;10425483;28;20041;-57
2023/09/20 12:53:17;;;;;;;1.08;0.20;;;;;;;29.46;37.51;99689.84;10423561;28;20066;-57
2023/09/20 12:58:18;;;;;;;0.35;0.20;;;;;;;29.54;37.12;99674.38;10407641;28;20099;-59
2023/09/20 13:03:20;;;;;;;0.45;0.20;;;;;;;29.52;37.54;99673.09;10427103;28;20072;-57
2023/09/20 13:08:23;;;;;;;2.47;0.30;;;;;;;29.20;37.89;99673.09;10421082;28;20140;-57
2023/09/20 13:13:24;;;;;;;1.27;0.30;;;;;;;29.10;38.37;99669.75;10422282;28;20045;-57
2023/09/20 13:18:26;;;;;;;0.63;0.30;;;;;;;29.46;37.95;99648.31;10426900;28;20057;-58
2023/09/20 13:23:29;;;;;;;1.65;0.50;;;;;;;29.71;36.93;99648.72;10423971;28;20538;-57
2023/09/20 13:28:33;;;;;;;3.03;0.50;;;;;;;29.75;36.97;99646.16;10426028;28;20067;-58
2023/09/20 13:33:34;;;;;;;1.02;0.32;;;;;;;29.57;36.49;99632.22;10427101;28;20044;-58
2023/09/20 13:38:36;;;;;;;3.15;0.52;;;;;;;29.97;36.92;99634.13;10419559;28;20164;-56
2023/09/20 13:43:38;;;;;;;0.85;0.38;;;;;;;29.97;36.80;99615.53;10426417;28;20053;-58
2023/09/20 13:48:40;;;;;;;1.23;0.40;;;;;;;29.68;36.21;99613.34;10420700;28;20049;-58
2023/09/20 13:53:43;;;;;;;3.17;1.52;;;;;;;29.50;36.40;99609.69;10415577;28;20485;-57
2023/09/20 13:58:45;;;;;;;2.47;0.30;;;;;;;29.84;35.93;99617.31;10418841;28;20053;-57
2023/09/20 14:03:47;;;;;;;2.30;0.30;;;;;;;30.00;34.86;99601.03;10420252;28;20052;-56
2023/09/20 14:08:49;;;;;;;0.47;0.30;;;;;;;29.73;35.26;99599.38;10415080;28;20136;-56
2023/09/20 14:13:50;;;;;;;2.75;0.80;;;;;;;31.54;32.57;99589.53;10417576;28;20054;-57
2023/09/20 14:18:52;;;;;;;0.47;0.20;;;;;;;32.29;31.74;99581.31;10426551;28;20049;-55
2023/09/20 14:23:55;;;;;;;1.05;0.30;;;;;;;32.48;31.16;99577.22;10448640;28;20496;-56
2023/09/20 14:28:57;;;;;;;3.63;0.40;;;;;;;33.20;30.28;99561.06;10460065;28;20055;-55
2023/09/20 14:33:58;;;;;;;1.95;0.40;;;;;;;33.04;31.17;99563.69;10463416;28;20047;-55
2023/09/20 14:39:00;;;;;;;1.17;0.30;;;;;;;32.94;30.92;99559.41;10439437;28;20053;-55
2023/09/20 14:44:04;;;;;;;0.50;0.25;;;;;;;31.63;32.44;99552.16;10457186;28;20072;-57
2023/09/20 14:49:07;;;;;;;1.43;0.50;;;;;;;32.77;31.00;99545.66;10444701;28;20049;-58
2023/09/20 14:54:09;;;;;;;0.68;0.30;;;;;;;32.96;30.94;99536.75;10438690;28;20056;-57
2023/09/20 14:59:11;;;;;;;1.98;0.75;;;;;;;31.88;32.04;99535.66;10422302;28;20037;-58
2023/09/20 15:04:12;;;;;;;1.50;0.57;;;;;;;32.14;31.77;99526.31;10448544;28;20480;-58
2023/09/20 15:09:17;;;;;;;2.45;0.75;;;;;;;31.53;32.55;99529.53;10440494;28;20462;-58
2023/09/20 15:14:18;;;;;;;2.10;0.50;;;;;;;31.24;33.02;99514.47;10444220;28;20084;-61
2023/09/20 15:19:20;;;;;;;1.17;0.45;;;;;;;31.22;33.11;99505.66;10424816;28;20444;-58
2023/09/20 15:24:21;;;;;;;0.90;0.40;;;;;;;31.45;33.15;99492.31;10403629;28;20057;-62
2023/09/20 15:29:23;;;;;;;1.27;0.35;;;;;;;31.34;33.28;99496.59;10433989;28;20487;-58
2023/09/20 15:34:24;;;;;;;4.07;0.50;;;;;;;31.39;32.40;99493.66;10435296;28;20061;-60
2023/09/20 15:39:28;;;;;;;0.80;0.35;;;;;;;31.25;32.36;99491.13;10433383;28;20041;-59
2023/09/20 15:44:31;;;;;;;2.05;0.40;;;;;;;30.62;32.79;99486.16;10429098;28;20095;-59
2023/09/20 15:49:33;;;;;;;3.40;0.50;;;;;;;30.29;33.04;99485.06;10416340;28;20063;-59
2023/09/20 15:54:35;;;;;;;3.90;0.43;;;;;;;29.62;34.08;99484.41;10398025;28;20049;-59
2023/09/20 15:59:39;;;;;;;2.65;0.68;;;;;;;29.39;33.97;99475.44;10431181;28;20056;-61
2023/09/20 16:04:41;;;;;;;2.30;0.40;;;;;;;29.26;34.57;99463.38;10415875;28;20080;-59
2023/09/20 16:09:42;;;;;;;4.70;0.40;;;;;;;29.23;34.55;99455.72;10418854;28;20063;-59
2023/09/20 16:14:44;;;;;;;1.23;0.40;;;;;;;29.31;34.50;99456.88;10420774;28;20057;-59
2023/09/20 16:19:45;;;;;;;0.95;0.45;;;;;;;29.36;34.64;99448.41;10433393;28;20083;-59
2023/09/20 16:24:47;;;;;;;2.88;0.40;;;;;;;29.42;34.86;99445.16;10414968;28;20072;-59
2023/09/20 16:29:51;;;;;;;1.48;0.73;;;;;;;29.23;35.03;99430.81;10427820;28;20052;-59
2023/09/20 16:34:54;;;;;;;2.03;0.60;;;;;;;28.74;34.72;99444.63;10430037;28;20052;-59
2023/09/20 16:39:57;;;;;;;3.60;0.40;;;;;;;28.48;35.29;99430.69;10434945;28;20048;-60
2023/09/20 16:44:58;;;;;;;0.63;0.40;;;;;;;28.22;35.52;99422.22;10428178;28;20060;-60
2023/09/20 16:50:01;;;;;;;1.33;0.40;;;;;;;27.89;35.79;99423.34;10432301;28;20060;-59
2023/09/20 16:55:03;;;;;;;0.90;0.57;;;;;;;27.57;36.14;99423.53;10411798;28;20060;-60
2023/09/20 17:00:08;;;;;;;0.93;0.45;;;;;;;27.34;36.80;99425.47;10424642;28;20496;-60
2023/09/20 17:05:14;;;;;;;2.97;0.60;;;;;;;26.97;36.67;99428.13;10407830;28;20056;-60
2023/09/20 17:10:16;;;;;;;3.42;0.93;;;;;;;26.75;37.84;99430.81;10429206;28;20684;-60
2023/09/20 17:15:19;;;;;;;1.30;0.52;;;;;;;26.49;37.84;99434.84;10425833;28;20047;-56
2023/09/20 17:20:20;;;;;;;1.08;0.40;;;;;;;26.26;38.62;99425.66;10409938;28;20140;-57
2023/09/20 17:25:22;;;;;;;1.35;0.43;;;;;;;26.09;38.69;99428.16;10413343;28;20049;-57
2023/09/20 17:30:24;;;;;;;2.80;0.60;;;;;;;25.95;39.33;99419.00;10424977;28;20060;-56
2023/09/20 17:35:25;;;;;;;4.57;0.70;;;;;;;25.76;40.05;99419.03;10428184;28;20056;-57
2023/09/20 17:40:29;;;;;;;2.80;0.68;;;;;;;25.56;40.22;99421.00;10423409;28;20051;-56
2023/09/20 17:45:30;;;;;;;3.20;0.98;;;;;;;25.26;40.98;99414.00;10424063;28;20057;-56
2023/09/20 17:50:32;;;;;;;2.10;1.48;;;;;;;25.04;41.52;99412.63;10417295;28;20083;-56
2023/09/20 17:55:35;;;;;;;2.10;1.00;;;;;;;24.83;41.97;99412.03;10420820;28;20061;-56
2023/09/20 18:00:36;;;;;;;2.47;0.60;;;;;;;24.61;42.39;99415.34;10403933;28;20053;-58
2023/09/20 18:05:38;;;;;;;2.13;1.50;;;;;;;24.41;42.84;99423.75;10413131;28;20053;-58
2023/09/20 18:10:39;;;;;;;3.10;0.65;;;;;;;24.20;43.40;99428.66;10422862;28;20049;-58
2023/09/20 18:15:41;;;;;;;6.15;0.90;;;;;;;23.98;44.17;99434.63;10422068;28;20049;-57
2023/09/20 18:20:44;;;;;;;1.63;0.77;;;;;;;23.76;44.35;99430.38;10416224;28;20064;-58
2023/09/20 18:25:46;;;;;;;5.43;1.20;;;;;;;23.55;45.35;99430.50;10421159;28;20060;-57
2023/09/20 18:30:51;;;;;;;5.55;1.98;;;;;;;23.37;45.84;99433.91;10432604;28;20144;-58
2023/09/20 18:35:52;;;;;;;6.18;1.20;;;;;;;23.10;46.51;99440.63;10424232;28;20064;-58
2023/09/20 18:40:54;;;;;;;6.38;1.42;;;;;;;22.90;47.02;99437.94;10423054;28;20064;-57
2023/09/20 18:45:55;;;;;;;3.15;0.80;;;;;;;22.70;47.53;99441.59;10421472;28;20057;-56
2023/09/20 18:50:57;;;;;;;3.13;0.80;;;;;;;22.49;47.95;99441.66;10399121;28;20048;-56
2023/09/20 18:55:59;;;;;;;2.13;0.70;;;;;;;22.23;48.68;99445.47;10423465;28;20515;-56
2023/09/20 19:01:16;;;;;;;2.97;0.90;;;;;;;22.14;48.87;99445.22;10427728;28;20053;-57
2023/09/20 19:06:22;;;;;;;2.35;0.70;;;;;;;22.05;49.30;99435.91;10431980;28;20144;-58
2023/09/20 19:11:26;;;;;;;5.13;0.93;;;;;;;21.78;50.11;99437.00;10429073;28;20140;-58
2023/09/20 19:16:28;;;;;;;5.20;1.00;;;;;;;21.67;50.75;99446.31;10427193;28;20496;-57
2023/09/20 19:21:30;;;;;;;2.90;0.90;;;;;;;21.47;51.30;99442.44;10424286;28;20136;-58
2023/09/20 19:26:32;;;;;;;3.75;1.10;;;;;;;21.44;51.44;99442.16;10415385;28;20123;-57
2023/09/20 19:31:34;;;;;;;1.42;0.82;;;;;;;21.33;51.93;99431.16;10425954;28;20108;-56
2023/09/20 19:36:35;;;;;;;3.30;0.73;;;;;;;21.27;52.34;99432.25;10431869;28;20079;-57
2023/09/20 19:41:37;;;;;;;3.05;0.73;;;;;;;21.13;52.44;99426.47;10435920;28;20054;-58
2023/09/20 19:46:39;;;;;;;6.15;0.93;;;;;;;20.93;53.20;99412.72;10439375;28;20044;-58
2023/09/20 19:51:42;;;;;;;3.28;0.90;;;;;;;20.69;53.85;99412.34;10443628;28;20046;-58
2023/09/20 19:56:47;;;;;;;7.05;1.13;;;;;;;20.52;54.54;99409.78;10424560;28;20399;-58
2023/09/20 20:01:51;;;;;;;4.43;0.95;;;;;;;20.36;54.75;99419.81;10452269;28;20457;-58
2023/09/20 20:06:52;;;;;;;2.42;0.80;;;;;;;20.16;55.14;99415.84;10428148;28;20051;-58
2023/09/20 20:11:54;;;;;;;2.80;0.90;;;;;;;19.97;55.80;99415.44;10438685;28;20052;-57
2023/09/20 20:17:04;;;;;;;2.53;0.93;;;;;;;19.74;56.81;99411.13;10431374;28;20050;-57
2023/09/20 20:22:06;;;;;;;2.33;0.75;;;;;;;19.67;57.02;99418.69;10403649;28;20500;-58
2023/09/20 20:27:09;;;;;;;7.30;2.22;;;;;;;19.66;57.27;99413.50;10425740;28;20068;-59
2023/09/20 20:32:10;;;;;;;3.13;0.80;;;;;;;19.64;57.12;99415.66;10423630;28;20110;-58
2023/09/20 20:37:12;;;;;;;3.30;0.88;;;;;;;19.65;57.53;99411.84;10421418;28;20049;-58
2023/09/20 20:42:13;;;;;;;0.98;0.68;;;;;;;19.54;57.60;99419.94;10418466;28;20060;-58
2023/09/20 20:47:15;;;;;;;3.58;1.13;;;;;;;19.46;57.71;99414.94;10422609;28;20049;-58
2023/09/20 20:52:18;;;;;;;2.10;0.80;;;;;;;19.36;58.21;99406.69;10405995;28;20065;-57
2023/09/20 20:57:21;;;;;;;4.10;1.30;;;;;;;19.27;58.44;99403.56;10430692;28;20049;-57
2023/09/20 21:02:23;;;;;;;2.42;0.90;;;;;;;19.24;58.60;99406.00;10428805;28;20526;-57
2023/09/20 21:07:25;;;;;;;3.00;1.13;;;;;;;19.05;59.11;99400.88;10425921;28;20055;-57
2023/09/20 21:12:29;;;;;;;2.13;0.82;;;;;;;19.08;59.01;99394.94;10425653;28;20400;-56
2023/09/20 21:17:32;;;;;;;1.17;0.68;;;;;;;19.05;59.17;99400.88;10425397;28;20050;-57
2023/09/20 21:22:35;;;;;;;3.90;0.90;;;;;;;19.02;59.14;99394.06;10421590;28;20052;-56
2023/09/20 21:27:36;;;;;;;4.03;1.00;;;;;;;18.97;59.26;99388.53;10426322;28;20049;-56
2023/09/20 21:32:38;;;;;;;4.38;1.77;;;;;;;18.87;59.60;99382.16;10424213;28;20403;-56
2023/09/20 21:37:40;;;;;;;0.98;0.63;;;;;;;18.69;59.92;99386.81;10425464;28;20106;-56
2023/09/20 21:42:43;;;;;;;1.15;0.88;;;;;;;18.41;60.59;99377.75;10432930;28;20049;-56
2023/09/20 21:47:46;;;;;;;3.78;0.90;;;;;;;18.27;61.03;99378.38;10429041;28;20152;-56
2023/09/20 21:52:49;;;;;;;2.13;0.77;;;;;;;18.32;60.79;99371.09;10427370;28;20045;-56
2023/09/20 21:57:51;;;;;;;3.08;0.95;;;;;;;18.34;60.65;99377.09;10422184;28;20080;-58
2023/09/20 22:02:58;;;;;;;3.25;0.90;;;;;;;18.30;60.92;99370.53;10423187;28;20396;-57
2023/09/20 22:08:03;;;;;;;2.45;0.70;;;;;;;18.26;61.03;99365.84;10427999;28;20053;-58
2023/09/20 22:13:09;;;;;;;3.35;1.10;;;;;;;18.21;60.83;99363.88;10428845;28;20102;-57
2023/09/20 22:18:28;;;;;;;3.95;0.77;;;;;;;18.14;61.08;99361.31;10420251;28;20133;-59
2023/09/20 22:23:30;;;;;;;1.95;0.90;;;;;;;18.12;61.26;99365.38;10423669;28;20053;-57
2023/09/20 22:28:33;;;;;;;2.17;0.95;;;;;;;18.07;61.28;99354.41;10426529;28;20057;-58
2023/09/20 22:33:36;;;;;;;1.70;0.80;;;;;;;18.00;61.47;99355.41;10418564;28;20561;-57
2023/09/20 22:38:38;;;;;;;3.03;1.23;;;;;;;17.97;61.48;99358.66;10428290;28;20712;-57
2023/09/20 22:43:40;;;;;;;1.90;0.73;;;;;;;17.90;61.65;99349.00;10429766;28;20100;-58
2023/09/20 22:48:45;;;;;;;4.82;0.85;;;;;;;17.86;61.82;99347.88;10438740;28;20057;-59
2023/09/20 22:53:51;;;;;;;3.92;0.95;;;;;;;17.80;61.83;99336.88;10433222;28;20044;-58
2023/09/20 22:58:52;;;;;;;5.47;0.88;;;;;;;17.72;62.09;99339.19;10433544;28;20141;-58
2023/09/20 23:03:55;;;;;;;4.85;0.85;;;;;;;17.68;62.18;99343.47;10431128;28;20526;-58
2023/09/20 23:08:58;;;;;;;2.40;0.80;;;;;;;17.54;62.58;99327.50;10428034;28;20041;-57
2023/09/20 23:14:01;;;;;;;2.47;0.98;;;;;;;17.51;62.51;99314.38;10427979;28;20061;-58
2023/09/20 23:19:05;;;;;;;1.85;1.00;;;;;;;17.47;62.41;99313.25;10422421;28;20136;-57
2023/09/20 23:24:06;;;;;;;1.85;0.90;;;;;;;17.44;62.60;99313.75;10429723;28;20053;-57
2023/09/20 23:29:08;;;;;;;2.67;0.80;;;;;;;17.33;62.71;99299.16;10426786;28;20146;-58
2023/09/20 23:34:09;;;;;;;2.92;1.25;;;;;;;17.10;63.59;99302.88;10429765;28;20049;-58
2023/09/20 23:39:11;;;;;;;2.22;0.80;;;;;;;17.14;63.58;99304.03;10426084;28;20052;-58
2023/09/20 23:44:15;;;;;;;2.42;0.90;;;;;;;17.16;63.50;99303.75;10426604;28;20054;-57
2023/09/20 23:49:17;;;;;;;2.55;0.88;;;;;;;17.10;63.44;99302.88;10429604;28;20068;-58
2023/09/20 23:54:19;;;;;;;2.30;1.20;;;;;;;17.10;63.63;99310.16;10423633;28;20073;-57
2023/09/20 23:59:20;;;;;;;2.47;1.00;;;;;;;17.06;63.70;99296.25;10422466;28;20065;-57
